createdAt,value
2023-05-02T00:01:51.046Z,95627.81
2023-05-02T00:04:18.841Z,95629.75
2023-05-02T00:06:47.130Z,95632.19
2023-05-02T00:09:15.616Z,95637.00
2023-05-02T00:11:44.800Z,95626.66
2023-05-02T00:14:12.432Z,95631.38
2023-05-02T00:16:40.312Z,95630.31
2023-05-02T00:19:08.056Z,95625.50
2023-05-02T00:21:35.944Z,95633.69
2023-05-02T00:24:03.607Z,95624.44
2023-05-02T00:26:31.438Z,95624.84
2023-05-02T00:29:01.124Z,95627.47
2023-05-02T00:31:28.888Z,95634.50
2023-05-02T00:33:57.120Z,95640.56
2023-05-02T00:36:24.799Z,95636.66
2023-05-02T00:38:52.459Z,95646.00
2023-05-02T00:41:20.055Z,95632.44
2023-05-02T00:43:47.596Z,95639.72
2023-05-02T00:46:16.868Z,95628.81
2023-05-02T00:48:45.203Z,95632.56
2023-05-02T00:51:13.384Z,95644.75
2023-05-02T00:53:41.443Z,95639.13
2023-05-02T00:56:09.509Z,95633.31
2023-05-02T00:58:39.671Z,95632.56
2023-05-02T01:01:23.724Z,95630.59
2023-05-02T01:04:02.208Z,95635.56
2023-05-02T01:06:42.190Z,95638.44
2023-05-02T01:09:22.874Z,95636.19
2023-05-02T01:11:57.774Z,95637.03
2023-05-02T01:14:27.819Z,95631.41
2023-05-02T01:16:59.851Z,95632.41
2023-05-02T01:19:39.334Z,95639.84
2023-05-02T01:22:10.560Z,95645.88
2023-05-02T01:24:47.552Z,95647.78
2023-05-02T01:27:23.515Z,95645.09
2023-05-02T01:29:54.522Z,95647.16
2023-05-02T01:32:24.893Z,95642.72
2023-05-02T01:34:54.129Z,95643.69
2023-05-02T01:37:24.638Z,95648.44
2023-05-02T01:39:53.138Z,95650.25
2023-05-02T01:42:21.901Z,95651.06
2023-05-02T01:44:52.702Z,95656.28
2023-05-02T01:47:22.977Z,95647.56
2023-05-02T01:49:51.129Z,95647.59
2023-05-02T01:52:23.243Z,95655.75
2023-05-02T01:54:52.971Z,95648.63
2023-05-02T01:57:21.229Z,95653.78
2023-05-02T01:59:51.132Z,95648.66
2023-05-02T02:02:21.364Z,95655.41
2023-05-02T02:04:50.179Z,95656.41
2023-05-02T02:07:18.065Z,95659.72
2023-05-02T02:09:45.646Z,95650.38
2023-05-02T02:12:18.684Z,95656.25
2023-05-02T02:14:51.982Z,95658.50
2023-05-02T02:17:27.236Z,95654.56
2023-05-02T02:19:57.476Z,95652.31
2023-05-02T02:22:28.516Z,95659.50
2023-05-02T02:24:57.401Z,95657.97
2023-05-02T02:27:25.501Z,95652.19
2023-05-02T02:29:53.079Z,95660.41
2023-05-02T02:32:20.791Z,95660.72
2023-05-02T02:34:49.727Z,95657.72
2023-05-02T02:37:19.897Z,95661.34
2023-05-02T02:39:57.029Z,95663.63
2023-05-02T02:42:35.262Z,95669.19
2023-05-02T02:45:10.807Z,95672.84
2023-05-02T02:47:47.258Z,95679.09
2023-05-02T02:50:24.076Z,95676.47
2023-05-02T02:52:56.267Z,95680.44
2023-05-02T02:55:32.745Z,95678.81
2023-05-02T02:58:05.095Z,95682.06
2023-05-02T03:00:34.244Z,95682.06
2023-05-02T03:03:01.959Z,95685.00
2023-05-02T03:05:33.969Z,95685.19
2023-05-02T03:08:01.924Z,95687.13
2023-05-02T03:10:29.562Z,95692.16
2023-05-02T03:12:57.435Z,95686.81
2023-05-02T03:16:17.724Z,95691.47
2023-05-02T03:18:47.002Z,95695.03
2023-05-02T03:21:16.288Z,95696.16
2023-05-02T03:23:44.318Z,95697.59
2023-05-02T03:26:12.069Z,95701.06
2023-05-02T03:28:40.651Z,95699.88
2023-05-02T03:31:08.719Z,95706.16
2023-05-02T03:33:40.103Z,95707.03
2023-05-02T03:36:08.591Z,95708.56
2023-05-02T03:38:37.853Z,95710.16
2023-05-02T03:41:09.215Z,95704.94
2023-05-02T03:43:37.826Z,95719.09
2023-05-02T03:46:07.781Z,95718.16
2023-05-02T03:48:37.975Z,95712.91
2023-05-02T03:51:09.710Z,95717.81
2023-05-02T03:53:44.528Z,95724.53
2023-05-02T03:56:13.436Z,95725.47
2023-05-02T03:58:49.891Z,95722.47
2023-05-02T04:01:21.618Z,95724.94
2023-05-02T04:03:51.624Z,95732.06
2023-05-02T04:06:21.740Z,95729.84
2023-05-02T04:08:58.888Z,95728.88
2023-05-02T04:11:31.018Z,95731.47
2023-05-02T04:13:59.037Z,95729.88
2023-05-02T04:16:26.815Z,95733.53
2023-05-02T04:18:54.773Z,95743.25
2023-05-02T04:21:23.106Z,95742.88
2023-05-02T04:23:50.794Z,95743.41
2023-05-02T04:26:20.197Z,95744.34
2023-05-02T04:28:54.831Z,95744.94
2023-05-02T04:31:22.863Z,95749.03
2023-05-02T04:33:52.028Z,95753.78
2023-05-02T04:36:23.944Z,95754.44
2023-05-02T04:38:52.236Z,95754.44
2023-05-02T04:41:21.909Z,95764.94
2023-05-02T04:43:56.266Z,95758.50
2023-05-02T04:46:23.968Z,95771.47
2023-05-02T04:48:51.803Z,95763.72
2023-05-02T04:51:20.640Z,95768.78
2023-05-02T04:53:50.491Z,95780.78
2023-05-02T04:56:18.420Z,95782.56
2023-05-02T04:58:47.377Z,95786.19
2023-05-02T05:01:15.158Z,95788.78
2023-05-02T05:03:43.225Z,95801.69
2023-05-02T05:06:11.149Z,95797.28
2023-05-02T05:08:39.825Z,95804.13
2023-05-02T05:11:08.101Z,95800.03
2023-05-02T05:13:37.639Z,95813.47
2023-05-02T05:16:08.406Z,95810.44
2023-05-02T05:18:40.805Z,95808.56
2023-05-02T05:21:11.658Z,95807.50
2023-05-02T05:23:45.731Z,95816.09
2023-05-02T05:26:17.802Z,95828.94
2023-05-02T05:28:50.733Z,95826.66
2023-05-02T05:31:22.843Z,95829.91
2023-05-02T05:33:54.118Z,95830.19
2023-05-02T05:36:23.861Z,95834.22
2023-05-02T05:38:52.347Z,95826.28
2023-05-02T05:41:21.038Z,95826.22
2023-05-02T05:43:53.154Z,95826.47
2023-05-02T05:46:22.817Z,95832.16
2023-05-02T05:48:50.936Z,95832.13
2023-05-02T05:51:19.471Z,95833.16
2023-05-02T05:53:47.468Z,95842.53
2023-05-02T05:56:15.636Z,95834.31
2023-05-02T05:58:49.560Z,95835.38
2023-05-02T06:01:17.891Z,95840.75
2023-05-02T06:03:48.213Z,95838.22
2023-05-02T06:06:17.164Z,95842.56
2023-05-02T06:08:44.804Z,95842.13
2023-05-02T06:11:12.818Z,95850.78
2023-05-02T06:13:41.406Z,95844.41
2023-05-02T06:16:09.661Z,95860.06
2023-05-02T06:18:37.370Z,95852.97
2023-05-02T06:21:07.352Z,95864.00
2023-05-02T06:23:35.033Z,95866.34
2023-05-02T06:26:03.687Z,95858.19
2023-05-02T06:28:32.181Z,95860.56
2023-05-02T06:31:01.282Z,95858.50
2023-05-02T06:33:29.031Z,95866.22
2023-05-02T06:35:58.172Z,95866.81
2023-05-02T06:38:28.316Z,95878.38
2023-05-02T06:40:56.094Z,95867.13
2023-05-02T06:43:23.891Z,95872.16
2023-05-02T06:45:54.477Z,95883.72
2023-05-02T06:48:22.515Z,95889.91
2023-05-02T06:50:50.367Z,95886.63
2023-05-02T06:53:18.056Z,95894.63
2023-05-02T06:55:48.577Z,95889.97
2023-05-02T06:58:16.243Z,95894.38
2023-05-02T07:00:44.087Z,95898.97
2023-05-02T07:03:12.637Z,95892.19
2023-05-02T07:05:40.558Z,95900.41
2023-05-02T07:08:09.054Z,95904.06
2023-05-02T07:10:37.288Z,95904.81
2023-05-02T07:13:06.225Z,95907.34
2023-05-02T07:15:34.220Z,95907.97
2023-05-02T07:18:02.152Z,95912.81
2023-05-02T07:20:30.084Z,95913.66
2023-05-02T07:22:57.735Z,95916.16
2023-05-02T07:25:25.500Z,95913.63
2023-05-02T07:27:53.102Z,95912.66
2023-05-02T07:30:22.400Z,95912.75
2023-05-02T07:32:50.119Z,95904.13
2023-05-02T07:35:18.633Z,95906.31
2023-05-02T07:37:46.317Z,95903.84
2023-05-02T07:40:14.411Z,95914.41
2023-05-02T07:42:42.125Z,95908.00
2023-05-02T07:45:10.535Z,95917.22
2023-05-02T07:47:39.548Z,95909.56
2023-05-02T07:50:08.978Z,95910.03
2023-05-02T07:52:36.606Z,95913.94
2023-05-02T07:55:05.111Z,95919.00
2023-05-02T07:57:32.859Z,95919.06
2023-05-02T08:00:00.760Z,95913.69
2023-05-02T08:02:29.131Z,95916.53
2023-05-02T08:04:58.259Z,95918.22
2023-05-02T08:07:26.179Z,95918.22
2023-05-02T08:09:53.771Z,95929.16
2023-05-02T08:12:21.534Z,95930.59
2023-05-02T08:14:49.162Z,95924.34
2023-05-02T08:17:16.995Z,95930.91
2023-05-02T08:19:44.593Z,95935.78
2023-05-02T08:22:13.625Z,95928.81
2023-05-02T08:24:41.225Z,95935.78
2023-05-02T08:27:08.830Z,95933.72
2023-05-02T08:29:36.478Z,95935.78
2023-05-02T08:32:04.838Z,95947.06
2023-05-02T08:34:33.761Z,95940.25
2023-05-02T08:37:01.525Z,95937.47
2023-05-02T08:39:34.043Z,95937.22
2023-05-02T08:42:02.278Z,95947.84
2023-05-02T08:44:29.933Z,95946.84
2023-05-02T08:46:59.238Z,95946.22
2023-05-02T08:49:28.669Z,95949.88
2023-05-02T08:51:57.977Z,95954.59
2023-05-02T08:54:26.980Z,95956.69
2023-05-02T08:56:56.112Z,95960.28
2023-05-02T08:59:23.843Z,95962.88
2023-05-02T09:01:56.649Z,95960.63
2023-05-02T09:04:29.026Z,95968.22
2023-05-02T09:06:57.236Z,95972.66
2023-05-02T09:09:25.398Z,95965.53
2023-05-02T09:11:53.575Z,95976.94
2023-05-02T09:14:22.522Z,95967.28
2023-05-02T09:16:50.514Z,95976.28
2023-05-02T09:19:26.882Z,95973.41
2023-05-02T09:22:01.299Z,95974.66
2023-05-02T09:24:29.448Z,95983.59
2023-05-02T09:27:02.669Z,95973.25
2023-05-02T09:29:36.085Z,95973.69
2023-05-02T09:32:04.752Z,95973.78
2023-05-02T09:34:32.726Z,95975.22
2023-05-02T09:37:00.389Z,95977.19
2023-05-02T09:39:29.997Z,95977.84
2023-05-02T09:41:59.050Z,95972.59
2023-05-02T09:44:28.053Z,95973.28
2023-05-02T09:46:58.982Z,95977.56
2023-05-02T09:49:41.232Z,95977.56
2023-05-02T09:52:12.852Z,95983.75
2023-05-02T09:54:40.726Z,95979.44
2023-05-02T09:57:08.459Z,95981.84
2023-05-02T09:59:36.395Z,95976.47
2023-05-02T10:02:07.292Z,95987.88
2023-05-02T10:04:35.542Z,95976.75
2023-05-02T10:07:06.564Z,95989.50
2023-05-02T10:09:37.120Z,95980.91
2023-05-02T10:12:05.137Z,95980.41
2023-05-02T10:14:40.236Z,95975.03
2023-05-02T10:17:13.828Z,95978.38
2023-05-02T10:19:49.957Z,95977.03
2023-05-02T10:22:20.622Z,95978.31
2023-05-02T10:24:50.190Z,95978.03
2023-05-02T10:27:18.119Z,95978.28
2023-05-02T10:29:47.771Z,95975.00
2023-05-02T10:32:19.403Z,95979.41
2023-05-02T10:34:47.526Z,95975.09
2023-05-02T10:37:16.815Z,95973.09
2023-05-02T10:39:44.700Z,95972.72
2023-05-02T10:42:12.429Z,95976.34
2023-05-02T10:44:41.710Z,95970.56
2023-05-02T10:47:21.308Z,95978.63
2023-05-02T10:49:53.659Z,95967.19
2023-05-02T10:52:29.500Z,95968.03
2023-05-02T10:55:17.973Z,95966.34
2023-05-02T10:58:23.491Z,95960.22
2023-05-02T11:00:51.122Z,95961.78
2023-05-02T11:03:54.732Z,95963.63
2023-05-02T11:06:24.504Z,95963.78
2023-05-02T11:08:52.263Z,95965.75
2023-05-02T11:11:42.787Z,95965.81
2023-05-02T11:14:11.709Z,95963.34
2023-05-02T11:17:08.383Z,95958.75
2023-05-02T11:20:26.232Z,95958.34
2023-05-02T11:22:59.508Z,95964.16
2023-05-02T11:25:36.088Z,95953.88
2023-05-02T11:28:04.534Z,95961.44
2023-05-02T11:30:44.189Z,95957.41
2023-05-02T11:33:16.055Z,95941.03
2023-05-02T11:35:46.662Z,95946.69
2023-05-02T11:38:17.485Z,95951.72
2023-05-02T11:40:59.494Z,95946.34
2023-05-02T11:43:31.228Z,95948.03
2023-05-02T11:46:01.725Z,95951.66
2023-05-02T11:48:30.943Z,95947.78
2023-05-02T11:51:02.303Z,95956.94
2023-05-02T11:53:32.095Z,95944.38
2023-05-02T11:56:01.535Z,95939.09
2023-05-02T11:58:32.840Z,95947.06
2023-05-02T12:01:12.364Z,95941.09
2023-05-02T12:03:40.789Z,95953.28
2023-05-02T12:06:13.247Z,95942.91
2023-05-02T12:08:44.223Z,95939.66
2023-05-02T12:11:14.532Z,95936.44
2023-05-02T12:13:47.581Z,95944.72
2023-05-02T12:16:15.617Z,95938.22
2023-05-02T12:18:43.751Z,95938.41
2023-05-02T12:21:11.794Z,95943.56
2023-05-02T12:23:42.894Z,95938.47
2023-05-02T12:26:22.052Z,95939.34
2023-05-02T12:28:50.960Z,95935.38
2023-05-02T12:31:19.109Z,95933.34
2023-05-02T12:33:48.747Z,95931.34
2023-05-02T12:36:16.485Z,95930.22
2023-05-02T12:38:52.444Z,95931.81
2023-05-02T12:41:20.965Z,95925.88
2023-05-02T12:43:51.213Z,95925.00
2023-05-02T12:46:18.881Z,95931.06
2023-05-02T12:48:46.813Z,95926.47
2023-05-02T12:51:24.624Z,95933.38
2023-05-02T12:53:53.521Z,95932.97
2023-05-02T12:56:22.073Z,95925.59
2023-05-02T12:58:50.794Z,95921.03
2023-05-02T13:01:18.430Z,95928.56
2023-05-02T13:03:46.161Z,95921.06
2023-05-02T13:06:13.937Z,95923.06
2023-05-02T13:08:41.497Z,95923.94
2023-05-02T13:11:10.444Z,95923.94
2023-05-02T13:13:38.023Z,95923.66
2023-05-02T13:16:06.239Z,95928.81
2023-05-02T13:18:33.974Z,95930.03
2023-05-02T13:21:01.604Z,95918.22
2023-05-02T13:23:29.191Z,95919.97
2023-05-02T13:25:56.739Z,95922.84
2023-05-02T13:28:25.881Z,95924.47
2023-05-02T13:30:53.596Z,95922.16
2023-05-02T13:33:21.240Z,95931.03
2023-05-02T13:35:48.813Z,95928.66
2023-05-02T13:38:16.391Z,95930.88
2023-05-02T13:40:43.966Z,95932.81
2023-05-02T13:43:11.531Z,95925.41
2023-05-02T13:45:40.847Z,95922.88
2023-05-02T13:48:08.485Z,95929.53
2023-05-02T13:50:37.277Z,95923.44
2023-05-02T13:53:04.996Z,95928.38
2023-05-02T13:55:32.600Z,95924.59
2023-05-02T13:58:00.212Z,95933.50
2023-05-02T14:00:29.145Z,95925.00
2023-05-02T14:02:58.216Z,95922.34
2023-05-02T14:05:26.114Z,95923.81
2023-05-02T14:07:53.677Z,95920.34
2023-05-02T14:10:21.452Z,95923.03
2023-05-02T14:12:49.232Z,95924.41
2023-05-02T14:15:17.341Z,95922.88
2023-05-02T14:17:44.928Z,95918.66
2023-05-02T14:20:14.165Z,95915.66
2023-05-02T14:22:41.828Z,95924.81
2023-05-02T14:25:09.703Z,95916.56
2023-05-02T14:27:37.240Z,95921.22
2023-05-02T14:30:05.865Z,95921.09
2023-05-02T14:32:33.898Z,95926.31
2023-05-02T14:35:01.853Z,95926.53
2023-05-02T14:37:31.085Z,95918.88
2023-05-02T14:39:59.443Z,95918.75
2023-05-02T14:42:27.289Z,95921.28
2023-05-02T14:44:57.501Z,95923.25
2023-05-02T14:47:30.299Z,95919.56
2023-05-02T14:49:57.919Z,95920.09
2023-05-02T14:52:25.564Z,95923.56
2023-05-02T14:54:54.605Z,95926.22
2023-05-02T14:57:22.651Z,95927.31
2023-05-02T14:59:50.242Z,95935.09
2023-05-02T15:02:17.936Z,95936.34
2023-05-02T15:04:45.537Z,95935.38
2023-05-02T15:07:13.520Z,95944.91
2023-05-02T15:09:41.223Z,95950.84
2023-05-02T15:12:10.410Z,95953.72
2023-05-02T15:14:37.966Z,95954.59
2023-05-02T15:17:05.748Z,95959.50
2023-05-02T15:19:33.395Z,95968.94
2023-05-02T15:22:01.648Z,95979.97
2023-05-02T15:24:29.240Z,95982.00
2023-05-02T15:26:57.066Z,95981.81
2023-05-02T15:29:26.046Z,95968.91
2023-05-02T15:31:54.672Z,95970.97
2023-05-02T15:34:22.347Z,95970.94
2023-05-02T15:36:50.084Z,95978.72
2023-05-02T15:39:19.117Z,95982.63
2023-05-02T15:41:47.967Z,95994.66
2023-05-02T15:44:15.583Z,95993.38
2023-05-02T15:46:47.253Z,96001.94
2023-05-02T15:49:15.034Z,96009.69
2023-05-02T15:51:42.744Z,96007.88
2023-05-02T15:54:10.322Z,96009.00
2023-05-02T15:56:38.669Z,96002.44
2023-05-02T15:59:06.510Z,95999.22
2023-05-02T16:01:34.112Z,96002.66
2023-05-02T16:04:03.083Z,96005.75
2023-05-02T16:06:31.122Z,96015.56
2023-05-02T16:08:58.730Z,96019.63
2023-05-02T16:11:26.602Z,96025.38
2023-05-02T16:13:54.173Z,96018.22
2023-05-02T16:16:21.734Z,96028.66
2023-05-02T16:18:49.576Z,96027.84
2023-05-02T16:21:18.621Z,96033.16
2023-05-02T16:23:46.445Z,96045.22
2023-05-02T16:26:14.019Z,96043.16
2023-05-02T16:28:41.705Z,96048.88
2023-05-02T16:31:11.168Z,96058.88
2023-05-02T16:33:39.253Z,96066.63
2023-05-02T16:36:07.800Z,96063.69
2023-05-02T16:38:37.311Z,96073.78
2023-05-02T16:41:06.799Z,96077.50
2023-05-02T16:43:34.709Z,96067.25
2023-05-02T16:46:03.282Z,96059.16
2023-05-02T16:48:31.362Z,96072.97
2023-05-02T16:51:01.093Z,96074.72
2023-05-02T16:53:30.512Z,96077.78
2023-05-02T16:55:59.762Z,96080.03
2023-05-02T16:58:29.274Z,96086.97
2023-05-02T17:00:57.216Z,96088.59
2023-05-02T17:03:24.978Z,96104.31
2023-05-02T17:05:52.564Z,96110.31
2023-05-02T17:08:20.834Z,96117.50
2023-05-02T17:10:52.508Z,96115.28
2023-05-02T17:13:21.557Z,96121.78
2023-05-02T17:15:49.307Z,96129.50
2023-05-02T17:18:17.187Z,96121.31
2023-05-02T17:20:45.944Z,96125.41
2023-05-02T17:23:14.651Z,96123.13
2023-05-02T17:25:42.620Z,96119.13
2023-05-02T17:28:10.546Z,96126.53
2023-05-02T17:30:39.797Z,96126.41
2023-05-02T17:33:07.499Z,96131.75
2023-05-02T17:35:35.341Z,96135.03
2023-05-02T17:38:03.147Z,96137.97
2023-05-02T17:40:30.797Z,96138.34
2023-05-02T17:42:59.231Z,96136.44
2023-05-02T17:45:29.020Z,96143.78
2023-05-02T17:47:58.091Z,96146.34
2023-05-02T17:50:26.119Z,96146.91
2023-05-02T17:52:54.100Z,96147.75
2023-05-02T17:55:21.677Z,96152.03
2023-05-02T17:57:49.419Z,96151.00
2023-05-02T18:00:17.336Z,96151.31
2023-05-02T18:02:45.542Z,96147.22
2023-05-02T18:05:14.609Z,96151.88
2023-05-02T18:07:42.426Z,96156.53
2023-05-02T18:10:10.144Z,96160.94
2023-05-02T18:12:37.828Z,96160.38
2023-05-02T18:15:06.569Z,96158.75
2023-05-02T18:17:34.460Z,96162.59
2023-05-02T18:20:04.207Z,96162.31
2023-05-02T18:22:34.361Z,96164.97
2023-05-02T18:25:02.333Z,96162.69
2023-05-02T18:27:30.497Z,96166.88
2023-05-02T18:29:58.332Z,96165.81
2023-05-02T18:32:26.867Z,96161.88
2023-05-02T18:34:54.493Z,96155.31
2023-05-02T18:37:27.702Z,96171.81
2023-05-02T18:39:56.858Z,96175.56
2023-05-02T18:42:24.565Z,96171.47
2023-05-02T18:44:52.983Z,96181.16
2023-05-02T18:47:21.383Z,96176.22
2023-05-02T18:49:50.483Z,96185.16
2023-05-02T18:52:18.058Z,96178.22
2023-05-02T18:54:45.736Z,96183.44
2023-05-02T18:57:14.656Z,96182.13
2023-05-02T18:59:42.513Z,96183.69
2023-05-02T19:02:10.336Z,96183.97
2023-05-02T19:04:38.137Z,96191.59
2023-05-02T19:07:05.699Z,96185.66
2023-05-02T19:09:33.435Z,96192.66
2023-05-02T19:12:01.018Z,96197.66
2023-05-02T19:14:30.829Z,96197.41
2023-05-02T19:16:58.383Z,96202.88
2023-05-02T19:19:26.229Z,96201.34
2023-05-02T19:21:54.086Z,96206.19
2023-05-02T19:24:22.003Z,96209.00
2023-05-02T19:26:49.564Z,96210.63
2023-05-02T19:29:17.163Z,96202.56
2023-05-02T19:31:46.320Z,96205.84
2023-05-02T19:34:14.133Z,96212.31
2023-05-02T19:36:41.700Z,96208.31
2023-05-02T19:39:10.655Z,96211.94
2023-05-02T19:41:39.949Z,96218.75
2023-05-02T19:44:07.704Z,96226.41
2023-05-02T19:46:35.285Z,96226.25
2023-05-02T19:49:04.258Z,96230.84
2023-05-02T19:51:34.082Z,96236.25
2023-05-02T19:54:01.887Z,96239.56
2023-05-02T19:56:29.949Z,96235.44
2023-05-02T19:58:58.616Z,96227.91
2023-05-02T20:01:26.698Z,96225.50
2023-05-02T20:03:54.872Z,96224.19
2023-05-02T20:06:24.469Z,96230.81
2023-05-02T20:08:53.048Z,96229.84
2023-05-02T20:11:21.362Z,96231.38
2023-05-02T20:13:49.314Z,96227.94
2023-05-02T20:16:16.974Z,96227.28
2023-05-02T20:18:44.736Z,96231.06
2023-05-02T20:21:12.374Z,96231.88
2023-05-02T20:23:43.296Z,96237.53
2023-05-02T20:26:11.096Z,96240.16
2023-05-02T20:28:38.729Z,96240.38
2023-05-02T20:31:06.980Z,96250.13
2023-05-02T20:33:44.694Z,96251.78
2023-05-02T20:36:14.999Z,96250.91
2023-05-02T20:38:44.747Z,96245.94
2023-05-02T20:41:13.843Z,96237.72
2023-05-02T20:43:44.615Z,96246.28
2023-05-02T20:46:13.883Z,96245.31
2023-05-02T20:48:41.742Z,96249.13
2023-05-02T20:51:10.004Z,96250.28
2023-05-02T20:53:38.145Z,96253.88
2023-05-02T20:56:07.897Z,96242.84
2023-05-02T20:58:35.482Z,96246.66
2023-05-02T21:01:03.315Z,96244.03
2023-05-02T21:03:31.988Z,96245.97
2023-05-02T21:06:00.404Z,96253.59
2023-05-02T21:08:28.148Z,96247.00
2023-05-02T21:10:56.113Z,96237.75
2023-05-02T21:13:25.097Z,96241.88
2023-05-02T21:15:52.741Z,96246.00
2023-05-02T21:18:21.548Z,96245.84
2023-05-02T21:20:49.580Z,96253.56
2023-05-02T21:23:17.164Z,96250.44
2023-05-02T21:25:44.895Z,96244.66
2023-05-02T21:28:12.595Z,96246.00
2023-05-02T21:30:41.698Z,96239.88
2023-05-02T21:33:09.480Z,96240.22
2023-05-02T21:35:37.275Z,96236.94
2023-05-02T21:38:04.948Z,96238.06
2023-05-02T21:40:34.858Z,96242.03
2023-05-02T21:43:02.470Z,96235.94
2023-05-02T21:45:30.569Z,96236.75
2023-05-02T21:48:01.246Z,96234.78
2023-05-02T21:50:29.355Z,96229.84
2023-05-02T21:52:56.974Z,96227.38
2023-05-02T21:55:24.660Z,96236.75
2023-05-02T21:57:52.283Z,96222.59
2023-05-02T22:00:20.286Z,96226.22
2023-05-02T22:02:48.079Z,96227.88
2023-05-02T22:05:17.379Z,96220.31
2023-05-02T22:07:44.972Z,96232.66
2023-05-02T22:10:13.217Z,96226.56
2023-05-02T22:12:40.951Z,96220.97
2023-05-02T22:15:10.422Z,96226.22
2023-05-02T22:17:42.423Z,96227.06
2023-05-02T22:20:13.227Z,96227.53
2023-05-02T22:22:42.278Z,96232.28
2023-05-02T22:25:10.732Z,96235.72
2023-05-02T22:27:38.368Z,96235.22
2023-05-02T22:30:07.579Z,96236.00
2023-05-02T22:32:35.400Z,96241.25
2023-05-02T22:35:03.364Z,96244.03
2023-05-02T22:37:31.010Z,96241.63
2023-05-02T22:40:00.495Z,96247.94
2023-05-02T22:42:28.280Z,96245.25
2023-05-02T22:44:55.976Z,96247.13
2023-05-02T22:47:25.116Z,96247.63
2023-05-02T22:49:54.416Z,96248.13
2023-05-02T22:52:22.494Z,96245.50
2023-05-02T22:54:50.640Z,96247.09
2023-05-02T22:57:20.108Z,96245.91
2023-05-02T22:59:47.798Z,96248.88
2023-05-02T23:02:15.617Z,96247.66
2023-05-02T23:04:43.347Z,96254.66
2023-05-02T23:07:11.829Z,96249.84
2023-05-02T23:09:39.570Z,96247.38
2023-05-02T23:12:07.254Z,96236.72
2023-05-02T23:14:36.339Z,96233.97
2023-05-02T23:17:04.016Z,96240.47
2023-05-02T23:19:31.982Z,96239.50
2023-05-02T23:22:00.032Z,96235.75
2023-05-02T23:24:27.854Z,96238.38
2023-05-02T23:26:55.648Z,96237.88
2023-05-02T23:29:23.541Z,96238.84
2023-05-02T23:31:54.534Z,96238.88
2023-05-02T23:34:23.091Z,96245.25
2023-05-02T23:36:52.911Z,96237.00
2023-05-02T23:39:20.963Z,96237.00
2023-05-02T23:41:49.082Z,96238.59
2023-05-02T23:44:16.715Z,96235.06
2023-05-02T23:46:44.635Z,96239.09
2023-05-02T23:49:13.626Z,96225.81
2023-05-02T23:51:41.682Z,96233.53
2023-05-02T23:54:09.341Z,96233.75
2023-05-02T23:56:37.196Z,96241.34
2023-05-02T23:59:04.878Z,96234.81
